sensor_id;sensor_type;location;lat;lon;timestamp;pressure;altitude;pressure_sealevel;temperature;humidity
21504;BME280;10913;51.992;9.228;2023-01-09T00:02:12;98349.25;;;8.61;100.00
21504;BME280;10913;51.992;9.228;2023-01-09T00:04:38;98342.13;;;8.64;100.00
21504;BME280;10913;51.992;9.228;2023-01-09T00:07:03;98335.13;;;8.63;100.00
21504;BME280;10913;51.992;9.228;2023-01-09T00:09:28;98324.66;;;8.62;100.00
21504;BME280;10913;51.992;9.228;2023-01-09T00:11:54;98330.69;;;8.66;100.00
21504;BME280;10913;51.992;9.228;2023-01-09T00:14:20;98320.06;;;8.69;100.00
21504;BME280;10913;51.992;9.228;2023-01-09T00:16:47;98324.44;;;8.70;100.00
21504;BME280;10913;51.992;9.228;2023-01-09T00:19:12;98321.78;;;8.70;100.00
21504;BME280;10913;51.992;9.228;2023-01-09T00:21:38;98315.66;;;8.69;100.00
21504;BME280;10913;51.992;9.228;2023-01-09T00:24:04;98308.69;;;8.68;100.00
21504;BME280;10913;51.992;9.228;2023-01-09T00:26:30;98309.53;;;8.69;100.00
21504;BME280;10913;51.992;9.228;2023-01-09T00:28:55;98306.09;;;8.67;100.00
21504;BME280;10913;51.992;9.228;2023-01-09T00:31:20;98300.81;;;8.67;100.00
21504;BME280;10913;51.992;9.228;2023-01-09T00:33:51;98291.22;;;8.66;100.00
21504;BME280;10913;51.992;9.228;2023-01-09T00:36:19;98293.75;;;8.69;100.00
21504;BME280;10913;51.992;9.228;2023-01-09T00:38:44;98288.47;;;8.69;100.00
21504;BME280;10913;51.992;9.228;2023-01-09T00:41:16;98286.75;;;8.68;100.00
21504;BME280;10913;51.992;9.228;2023-01-09T00:43:47;98280.59;;;8.69;100.00
21504;BME280;10913;51.992;9.228;2023-01-09T00:46:15;98272.69;;;8.69;100.00
21504;BME280;10913;51.992;9.228;2023-01-09T00:48:43;98278.81;;;8.69;100.00
21504;BME280;10913;51.992;9.228;2023-01-09T00:51:09;98275.28;;;8.70;100.00
21504;BME280;10913;51.992;9.228;2023-01-09T00:53:36;98282.25;;;8.71;100.00
21504;BME280;10913;51.992;9.228;2023-01-09T00:56:06;98269.09;;;8.71;100.00
21504;BME280;10913;51.992;9.228;2023-01-09T00:58:32;98277.00;;;8.71;100.00
21504;BME280;10913;51.992;9.228;2023-01-09T01:00:58;98277.88;;;8.72;100.00
21504;BME280;10913;51.992;9.228;2023-01-09T01:03:24;98277.00;;;8.71;100.00
21504;BME280;10913;51.992;9.228;2023-01-09T01:05:49;98273.47;;;8.72;100.00
21504;BME280;10913;51.992;9.228;2023-01-09T01:08:34;98276.09;;;8.72;100.00
21504;BME280;10913;51.992;9.228;2023-01-09T01:11:04;98270.78;;;8.74;100.00
21504;BME280;10913;51.992;9.228;2023-01-09T01:13:30;98271.69;;;8.73;100.00
21504;BME280;10913;51.992;9.228;2023-01-09T01:15:55;98275.19;;;8.73;100.00
21504;BME280;10913;51.992;9.228;2023-01-09T01:18:20;98276.09;;;8.72;100.00
21504;BME280;10913;51.992;9.228;2023-01-09T01:20:46;98276.13;;;8.71;100.00
21504;BME280;10913;51.992;9.228;2023-01-09T01:23:11;98280.44;;;8.73;100.00
21504;BME280;10913;51.992;9.228;2023-01-09T01:25:41;98282.31;;;8.70;100.00
21504;BME280;10913;51.992;9.228;2023-01-09T01:28:06;98282.44;;;8.65;100.00
21504;BME280;10913;51.992;9.228;2023-01-09T01:30:32;98277.22;;;8.63;100.00
21504;BME280;10913;51.992;9.228;2023-01-09T01:33:01;98271.16;;;8.61;100.00
21504;BME280;10913;51.992;9.228;2023-01-09T01:35:26;98270.34;;;8.59;100.00
21504;BME280;10913;51.992;9.228;2023-01-09T01:37:51;98263.44;;;8.57;100.00
21504;BME280;10913;51.992;9.228;2023-01-09T01:40:17;98266.00;;;8.58;100.00
21504;BME280;10913;51.992;9.228;2023-01-09T01:42:47;98266.91;;;8.57;100.00
21504;BME280;10913;51.992;9.228;2023-01-09T01:45:23;98259.06;;;8.56;100.00
21504;BME280;10913;51.992;9.228;2023-01-09T01:47:57;98264.47;;;8.51;100.00
21504;BME280;10913;51.992;9.228;2023-01-09T01:50:43;98256.63;;;8.50;100.00
21504;BME280;10913;51.992;9.228;2023-01-09T01:53:16;98254.94;;;8.47;100.00
21504;BME280;10913;51.992;9.228;2023-01-09T01:56:19;98270.63;;;8.50;100.00
21504;BME280;10913;51.992;9.228;2023-01-09T01:58:53;98257.47;;;8.50;100.00
21504;BME280;10913;51.992;9.228;2023-01-09T02:01:22;98265.38;;;8.50;100.00
21504;BME280;10913;51.992;9.228;2023-01-09T02:03:52;98248.69;;;8.51;100.00
21504;BME280;10913;51.992;9.228;2023-01-09T02:06:19;98240.84;;;8.50;100.00
21504;BME280;10913;51.992;9.228;2023-01-09T02:08:45;98241.00;;;8.44;100.00
21504;BME280;10913;51.992;9.228;2023-01-09T02:11:13;98247.81;;;8.51;100.00
21504;BME280;10913;51.992;9.228;2023-01-09T02:13:38;98243.50;;;8.48;100.00
21504;BME280;10913;51.992;9.228;2023-01-09T02:37:38;98220.13;;;8.39;100.00
21504;BME280;10913;51.992;9.228;2023-01-09T02:40:41;98227.03;;;8.42;100.00
21504;BME280;10913;51.992;9.228;2023-01-09T02:43:09;98222.66;;;8.42;100.00
21504;BME280;10913;51.992;9.228;2023-01-09T02:45:35;98228.78;;;8.43;100.00
21504;BME280;10913;51.992;9.228;2023-01-09T02:48:00;98219.09;;;8.43;100.00
21504;BME280;10913;51.992;9.228;2023-01-09T02:50:40;98221.84;;;8.40;100.00
21504;BME280;10913;51.992;9.228;2023-01-09T03:07:43;98222.00;;;8.36;100.00
21504;BME280;10913;51.992;9.228;2023-01-09T03:10:39;98231.75;;;8.30;100.00
21504;BME280;10913;51.992;9.228;2023-01-09T03:13:09;98235.25;;;8.31;100.00
21504;BME280;10913;51.992;9.228;2023-01-09T03:15:37;98232.75;;;8.26;100.00
21504;BME280;10913;51.992;9.228;2023-01-09T03:18:07;98235.44;;;8.25;100.00
21504;BME280;10913;51.992;9.228;2023-01-09T03:20:33;98227.59;;;8.23;100.00
21504;BME280;10913;51.992;9.228;2023-01-09T03:23:02;98226.72;;;8.23;100.00
21504;BME280;10913;51.992;9.228;2023-01-09T03:25:29;98228.53;;;8.21;100.00
21504;BME280;10913;51.992;9.228;2023-01-09T03:28:01;98232.06;;;8.20;100.00
21504;BME280;10913;51.992;9.228;2023-01-09T03:30:28;98234.78;;;8.18;100.00
21504;BME280;10913;51.992;9.228;2023-01-09T03:32:54;98232.06;;;8.20;100.00
21504;BME280;10913;51.992;9.228;2023-01-09T03:35:20;98231.16;;;8.21;100.00
21504;BME280;10913;51.992;9.228;2023-01-09T03:37:45;98226.94;;;8.17;100.00
21504;BME280;10913;51.992;9.228;2023-01-09T03:40:11;98224.34;;;8.15;100.00
21504;BME280;10913;51.992;9.228;2023-01-09T03:42:37;98235.00;;;8.11;100.00
21504;BME280;10913;51.992;9.228;2023-01-09T03:45:03;98233.28;;;8.10;100.00
21504;BME280;10913;51.992;9.228;2023-01-09T03:47:29;98237.63;;;8.11;100.00
21504;BME280;10913;51.992;9.228;2023-01-09T03:49:54;98232.47;;;8.08;100.00
21504;BME280;10913;51.992;9.228;2023-01-09T03:52:19;98232.41;;;8.09;100.00
21504;BME280;10913;51.992;9.228;2023-01-09T03:54:45;98229.81;;;8.08;100.00
21504;BME280;10913;51.992;9.228;2023-01-09T03:57:10;98233.34;;;8.07;100.00
21504;BME280;10913;51.992;9.228;2023-01-09T03:59:36;98227.31;;;8.03;100.00
21504;BME280;10913;51.992;9.228;2023-01-09T04:02:01;98226.50;;;8.01;100.00
21504;BME280;10913;51.992;9.228;2023-01-09T04:04:26;98224.75;;;8.02;100.00
21504;BME280;10913;51.992;9.228;2023-01-09T04:06:52;98217.72;;;8.02;100.00
21504;BME280;10913;51.992;9.228;2023-01-09T04:09:18;98229.09;;;8.03;100.00
21504;BME280;10913;51.992;9.228;2023-01-09T04:11:43;98230.81;;;8.04;100.00
21504;BME280;10913;51.992;9.228;2023-01-09T04:14:09;98229.00;;;8.06;100.00
21504;BME280;10913;51.992;9.228;2023-01-09T04:16:34;98233.41;;;8.05;100.00
21504;BME280;10913;51.992;9.228;2023-01-09T04:18:59;98230.81;;;8.04;100.00
21504;BME280;10913;51.992;9.228;2023-01-09T04:21:25;98230.81;;;8.04;100.00
21504;BME280;10913;51.992;9.228;2023-01-09T04:23:50;98240.56;;;8.00;100.00
21504;BME280;10913;51.992;9.228;2023-01-09T04:26:16;98237.88;;;8.02;100.00
21504;BME280;10913;51.992;9.228;2023-01-09T04:28:41;98251.94;;;8.01;100.00
21504;BME280;10913;51.992;9.228;2023-01-09T04:31:07;98244.91;;;8.01;100.00
21504;BME280;10913;51.992;9.228;2023-01-09T04:33:32;98246.69;;;8.01;100.00
21504;BME280;10913;51.992;9.228;2023-01-09T04:35:58;98259.13;;;7.95;100.00
21504;BME280;10913;51.992;9.228;2023-01-09T04:38:24;98254.72;;;7.96;100.00
21504;BME280;10913;51.992;9.228;2023-01-09T04:40:51;98259.81;;;8.01;100.00
21504;BME280;10913;51.992;9.228;2023-01-09T04:43:17;98259.94;;;7.98;100.00
21504;BME280;10913;51.992;9.228;2023-01-09T04:45:42;98266.09;;;7.97;100.00
21504;BME280;10913;51.992;9.228;2023-01-09T04:48:07;98267.88;;;7.96;100.00
21504;BME280;10913;51.992;9.228;2023-01-09T04:50:33;98270.53;;;7.94;100.00
21504;BME280;10913;51.992;9.228;2023-01-09T04:52:58;98276.63;;;7.97;100.00
21504;BME280;10913;51.992;9.228;2023-01-09T04:55:24;98278.47;;;7.93;100.00
21504;BME280;10913;51.992;9.228;2023-01-09T04:57:49;98281.09;;;7.93;100.00
21504;BME280;10913;51.992;9.228;2023-01-09T05:00:15;98287.22;;;7.93;100.00
21504;BME280;10913;51.992;9.228;2023-01-09T05:02:40;98296.00;;;7.92;100.00
21504;BME280;10913;51.992;9.228;2023-01-09T05:05:07;98299.53;;;7.91;100.00
21504;BME280;10913;51.992;9.228;2023-01-09T05:07:33;98304.84;;;7.90;100.00
21504;BME280;10913;51.992;9.228;2023-01-09T05:09:59;98304.81;;;7.91;100.00
21504;BME280;10913;51.992;9.228;2023-01-09T05:12:24;98306.53;;;7.92;100.00
21504;BME280;10913;51.992;9.228;2023-01-09T05:14:50;98310.97;;;7.90;100.00
21504;BME280;10913;51.992;9.228;2023-01-09T05:17:15;98310.13;;;7.88;100.00
21504;BME280;10913;51.992;9.228;2023-01-09T05:19:40;98323.28;;;7.88;100.00
21504;BME280;10913;51.992;9.228;2023-01-09T05:22:06;98325.91;;;7.88;100.00
21504;BME280;10913;51.992;9.228;2023-01-09T05:24:32;98323.28;;;7.88;100.00
21504;BME280;10913;51.992;9.228;2023-01-09T05:26:58;98330.34;;;7.86;100.00
21504;BME280;10913;51.992;9.228;2023-01-09T05:29:23;98330.47;;;7.82;100.00
21504;BME280;10913;51.992;9.228;2023-01-09T05:31:48;98337.47;;;7.81;100.00
21504;BME280;10913;51.992;9.228;2023-01-09T05:34:14;98352.34;;;7.82;100.00
21504;BME280;10913;51.992;9.228;2023-01-09T05:36:39;98352.34;;;7.82;100.00
21504;BME280;10913;51.992;9.228;2023-01-09T05:39:05;98350.75;;;7.78;100.00
21504;BME280;10913;51.992;9.228;2023-01-09T05:41:30;98358.66;;;7.77;100.00
21504;BME280;10913;51.992;9.228;2023-01-09T05:43:58;98369.13;;;7.78;100.00
21504;BME280;10913;51.992;9.228;2023-01-09T05:46:24;98366.50;;;7.78;100.00
21504;BME280;10913;51.992;9.228;2023-01-09T05:48:49;98364.84;;;7.74;100.00
21504;BME280;10913;51.992;9.228;2023-01-09T05:51:15;98369.22;;;7.75;100.00
21504;BME280;10913;51.992;9.228;2023-01-09T05:53:40;98368.34;;;7.75;100.00
21504;BME280;10913;51.992;9.228;2023-01-09T05:56:06;98367.47;;;7.74;100.00
21504;BME280;10913;51.992;9.228;2023-01-09T05:58:31;98370.13;;;7.74;100.00
21504;BME280;10913;51.992;9.228;2023-01-09T06:00:57;98367.53;;;7.73;100.00
21504;BME280;10913;51.992;9.228;2023-01-09T06:03:23;98363.13;;;7.73;100.00
21504;BME280;10913;51.992;9.228;2023-01-09T06:05:48;98369.28;;;7.72;100.00
21504;BME280;10913;51.992;9.228;2023-01-09T06:08:16;98362.34;;;7.70;100.00
21504;BME280;10913;51.992;9.228;2023-01-09T06:10:41;98368.53;;;7.67;100.00
21504;BME280;10913;51.992;9.228;2023-01-09T06:13:06;98366.81;;;7.66;100.00
21504;BME280;10913;51.992;9.228;2023-01-09T06:15:32;98373.88;;;7.64;100.00
21504;BME280;10913;51.992;9.228;2023-01-09T06:17:57;98388.78;;;7.64;100.00
21504;BME280;10913;51.992;9.228;2023-01-09T06:20:22;98397.56;;;7.63;100.00
21504;BME280;10913;51.992;9.228;2023-01-09T06:22:48;98394.06;;;7.62;100.00
21504;BME280;10913;51.992;9.228;2023-01-09T06:25:16;98408.06;;;7.63;100.00
21504;BME280;10913;51.992;9.228;2023-01-09T06:27:41;98407.19;;;7.62;100.00
21504;BME280;10913;51.992;9.228;2023-01-09T06:30:09;98414.22;;;7.61;100.00
21504;BME280;10913;51.992;9.228;2023-01-09T06:32:35;98412.56;;;7.59;100.00
21504;BME280;10913;51.992;9.228;2023-01-09T06:35:00;98424.88;;;7.57;100.00
21504;BME280;10913;51.992;9.228;2023-01-09T06:37:25;98417.88;;;7.56;100.00
21504;BME280;10913;51.992;9.228;2023-01-09T06:39:51;98413.50;;;7.56;100.00
21504;BME280;10913;51.992;9.228;2023-01-09T06:42:18;98413.50;;;7.56;100.00
21504;BME280;10913;51.992;9.228;2023-01-09T06:44:43;98423.09;;;7.57;100.00
21504;BME280;10913;51.992;9.228;2023-01-09T06:47:08;98419.50;;;7.60;100.00
21504;BME280;10913;51.992;9.228;2023-01-09T06:49:34;98423.91;;;7.59;100.00
21504;BME280;10913;51.992;9.228;2023-01-09T06:52:00;98423.91;;;7.59;100.00
21504;BME280;10913;51.992;9.228;2023-01-09T06:54:29;98424.94;;;7.54;100.00
21504;BME280;10913;51.992;9.228;2023-01-09T06:56:55;98423.22;;;7.53;100.00
21504;BME280;10913;51.992;9.228;2023-01-09T06:59:20;98422.34;;;7.52;100.00
21504;BME280;10913;51.992;9.228;2023-01-09T07:01:46;98422.38;;;7.51;100.00
21504;BME280;10913;51.992;9.228;2023-01-09T07:04:11;98424.19;;;7.49;100.00
21504;BME280;10913;51.992;9.228;2023-01-09T07:06:37;98432.13;;;7.46;100.00
21504;BME280;10913;51.992;9.228;2023-01-09T07:09:02;98429.53;;;7.44;100.00
21504;BME280;10913;51.992;9.228;2023-01-09T07:11:30;98423.59;;;7.38;100.00
21504;BME280;10913;51.992;9.228;2023-01-09T07:13:55;98437.63;;;7.37;100.00
21504;BME280;10913;51.992;9.228;2023-01-09T07:16:20;98431.50;;;7.36;100.00
21504;BME280;10913;51.992;9.228;2023-01-09T07:18:46;98430.66;;;7.36;100.00
21504;BME280;10913;51.992;9.228;2023-01-09T07:21:11;98438.59;;;7.33;100.00
21504;BME280;10913;51.992;9.228;2023-01-09T07:23:37;98433.38;;;7.31;100.00
21504;BME280;10913;51.992;9.228;2023-01-09T07:26:02;98435.09;;;7.32;100.00
21504;BME280;10913;51.992;9.228;2023-01-09T07:28:27;98450.81;;;7.34;100.00
21504;BME280;10913;51.992;9.228;2023-01-09T07:30:53;98452.59;;;7.33;100.00
21504;BME280;10913;51.992;9.228;2023-01-09T07:33:19;98459.63;;;7.31;100.00
21504;BME280;10913;51.992;9.228;2023-01-09T07:35:44;98471.00;;;7.32;100.00
21504;BME280;10913;51.992;9.228;2023-01-09T07:38:09;98472.72;;;7.33;100.00
21504;BME280;10913;51.992;9.228;2023-01-09T07:40:35;98483.25;;;7.33;100.00
21504;BME280;10913;51.992;9.228;2023-01-09T07:43:00;98484.97;;;7.34;100.00
21504;BME280;10913;51.992;9.228;2023-01-09T07:45:25;98480.66;;;7.31;100.00
21504;BME280;10913;51.992;9.228;2023-01-09T07:47:51;98490.22;;;7.34;100.00
21504;BME280;10913;51.992;9.228;2023-01-09T07:50:17;98492.03;;;7.30;100.00
21504;BME280;10913;51.992;9.228;2023-01-09T07:52:45;98492.03;;;7.30;100.00
21504;BME280;10913;51.992;9.228;2023-01-09T07:55:11;98500.78;;;7.31;100.00
21504;BME280;10913;51.992;9.228;2023-01-09T07:57:37;98484.09;;;7.33;100.00
21504;BME280;10913;51.992;9.228;2023-01-09T08:00:03;98502.53;;;7.32;100.00
21504;BME280;10913;51.992;9.228;2023-01-09T08:02:31;98507.78;;;7.32;100.00
21504;BME280;10913;51.992;9.228;2023-01-09T08:04:56;98519.19;;;7.31;100.00
21504;BME280;10913;51.992;9.228;2023-01-09T08:07:22;98511.38;;;7.28;100.00
21504;BME280;10913;51.992;9.228;2023-01-09T08:09:47;98518.41;;;7.25;100.00
21504;BME280;10913;51.992;9.228;2023-01-09T08:12:12;98518.38;;;7.27;100.00
21504;BME280;10913;51.992;9.228;2023-01-09T08:14:38;98527.97;;;7.28;100.00
21504;BME280;10913;51.992;9.228;2023-01-09T08:17:03;98519.25;;;7.28;100.00
21504;BME280;10913;51.992;9.228;2023-01-09T08:19:28;98509.63;;;7.26;100.00
21504;BME280;10913;51.992;9.228;2023-01-09T08:21:54;98513.97;;;7.28;100.00
21504;BME280;10913;51.992;9.228;2023-01-09T08:24:19;98520.97;;;7.29;100.00
21504;BME280;10913;51.992;9.228;2023-01-09T08:26:44;98513.09;;;7.29;100.00
21504;BME280;10913;51.992;9.228;2023-01-09T08:29:10;98512.19;;;7.30;100.00
21504;BME280;10913;51.992;9.228;2023-01-09T08:31:35;98513.97;;;7.28;100.00
21504;BME280;10913;51.992;9.228;2023-01-09T08:34:01;98512.19;;;7.30;100.00
21504;BME280;10913;51.992;9.228;2023-01-09T08:36:26;98504.31;;;7.30;100.00
21504;BME280;10913;51.992;9.228;2023-01-09T08:38:52;98502.47;;;7.35;100.00
21504;BME280;10913;51.992;9.228;2023-01-09T08:41:17;98510.28;;;7.38;100.00
21504;BME280;10913;51.992;9.228;2023-01-09T08:44:09;98521.50;;;7.43;100.00
21504;BME280;10913;51.992;9.228;2023-01-09T08:46:52;98518.00;;;7.44;100.00
21504;BME280;10913;51.992;9.228;2023-01-09T08:49:34;98521.50;;;7.43;100.00
21504;BME280;10913;51.992;9.228;2023-01-09T08:51:59;98517.13;;;7.43;100.00
21504;BME280;10913;51.992;9.228;2023-01-09T08:54:25;98511.06;;;7.40;100.00
21504;BME280;10913;51.992;9.228;2023-01-09T08:56:50;98513.66;;;7.41;100.00
21504;BME280;10913;51.992;9.228;2023-01-09T08:59:16;98512.78;;;7.42;100.00
21504;BME280;10913;51.992;9.228;2023-01-09T09:01:41;98524.03;;;7.47;100.00
21504;BME280;10913;51.992;9.228;2023-01-09T09:04:07;98514.34;;;7.51;100.00
21504;BME280;10913;51.992;9.228;2023-01-09T09:06:33;98518.66;;;7.53;100.00
21504;BME280;10913;51.992;9.228;2023-01-09T09:08:58;98523.88;;;7.55;100.00
21504;BME280;10913;51.992;9.228;2023-01-09T09:11:33;98527.31;;;7.58;100.00
21504;BME280;10913;51.992;9.228;2023-01-09T09:13:59;98522.69;;;7.68;100.00
21504;BME280;10913;51.992;9.228;2023-01-09T09:16:25;98528.41;;;7.85;100.00
21504;BME280;10913;51.992;9.228;2023-01-09T09:18:51;98528.69;;;8.09;100.00
21504;BME280;10913;51.992;9.228;2023-01-09T09:21:17;98526.78;;;8.49;97.94
21504;BME280;10913;51.992;9.228;2023-01-09T09:23:42;98512.38;;;9.52;94.99
21504;BME280;10913;51.992;9.228;2023-01-09T09:26:10;98524.06;;;10.51;87.53
21504;BME280;10913;51.992;9.228;2023-01-09T09:28:36;98516.97;;;10.53;85.13
21504;BME280;10913;51.992;9.228;2023-01-09T09:31:04;98518.91;;;10.21;86.52
21504;BME280;10913;51.992;9.228;2023-01-09T09:33:29;98522.94;;;10.05;87.37
21504;BME280;10913;51.992;9.228;2023-01-09T09:35:57;98527.44;;;10.79;84.76
21504;BME280;10913;51.992;9.228;2023-01-09T09:38:22;98519.66;;;11.68;82.82
21504;BME280;10913;51.992;9.228;2023-01-09T09:46:52;98517.19;;;13.84;73.09
21504;BME280;10913;51.992;9.228;2023-01-09T09:49:42;98518.97;;;13.28;73.82
21504;BME280;10913;51.992;9.228;2023-01-09T09:52:22;98514.78;;;12.23;76.83
21504;BME280;10913;51.992;9.228;2023-01-09T09:54:56;98516.63;;;11.33;79.66
21504;BME280;10913;51.992;9.228;2023-01-09T09:57:31;98528.75;;;10.67;82.61
21504;BME280;10913;51.992;9.228;2023-01-09T09:59:58;98524.81;;;10.29;84.59
21504;BME280;10913;51.992;9.228;2023-01-09T10:02:28;98517.88;;;11.00;83.65
21504;BME280;10913;51.992;9.228;2023-01-09T10:04:59;98526.94;;;12.06;79.35
21504;BME280;10913;51.992;9.228;2023-01-09T10:07:30;98531.59;;;12.83;78.24
21504;BME280;10913;51.992;9.228;2023-01-09T10:10:02;98518.09;;;13.47;74.64
21504;BME280;10913;51.992;9.228;2023-01-09T10:12:38;98517.22;;;14.01;73.94
21504;BME280;10913;51.992;9.228;2023-01-09T10:15:28;98524.50;;;14.51;71.47
21504;BME280;10913;51.992;9.228;2023-01-09T10:25:56;98502.88;;;14.22;70.15
21504;BME280;10913;51.992;9.228;2023-01-09T10:28:49;98505.13;;;14.48;71.10
21504;BME280;10913;51.992;9.228;2023-01-09T10:37:29;98505.63;;;14.21;69.88
21504;BME280;10913;51.992;9.228;2023-01-09T10:40:13;98493.13;;;13.69;70.66
21504;BME280;10913;51.992;9.228;2023-01-09T10:42:48;98501.84;;;13.35;71.64
21504;BME280;10913;51.992;9.228;2023-01-09T10:47:47;98491.44;;;13.86;71.92
21504;BME280;10913;51.992;9.228;2023-01-09T10:50:23;98498.44;;;14.23;71.00
21504;BME280;10913;51.992;9.228;2023-01-09T10:52:51;98498.97;;;13.95;68.97
21504;BME280;10913;51.992;9.228;2023-01-09T10:55:40;98493.81;;;13.92;70.99
21504;BME280;10913;51.992;9.228;2023-01-09T10:58:12;98498.44;;;14.23;70.51
21504;BME280;10913;51.992;9.228;2023-01-09T11:00:41;98494.41;;;14.16;69.68
21504;BME280;10913;51.992;9.228;2023-01-09T11:03:21;98507.19;;;14.25;70.41
21504;BME280;10913;51.992;9.228;2023-01-09T11:05:54;98500.94;;;14.08;69.43
21504;BME280;10913;51.992;9.228;2023-01-09T11:08:40;98498.13;;;14.11;70.11
21504;BME280;10913;51.992;9.228;2023-01-09T11:11:08;98506.22;;;13.91;71.13
21504;BME280;10913;51.992;9.228;2023-01-09T11:13:35;98511.34;;;13.21;72.53
21504;BME280;10913;51.992;9.228;2023-01-09T11:18:53;98516.66;;;12.61;73.14
21504;BME280;10913;51.992;9.228;2023-01-09T11:21:39;98502.09;;;12.31;74.57
21504;BME280;10913;51.992;9.228;2023-01-09T11:26:51;98524.66;;;11.76;77.13
21504;BME280;10913;51.992;9.228;2023-01-09T11:29:19;98524.69;;;11.52;77.44
21504;BME280;10913;51.992;9.228;2023-01-09T11:34:23;98526.44;;;11.07;80.67
21504;BME280;10913;51.992;9.228;2023-01-09T11:36:51;98528.78;;;10.91;81.29
21504;BME280;10913;51.992;9.228;2023-01-09T11:39:27;98527.78;;;10.70;81.67
21504;BME280;10913;51.992;9.228;2023-01-09T11:42:02;98542.97;;;10.63;83.00
21504;BME280;10913;51.992;9.228;2023-01-09T11:44:30;98541.78;;;10.47;84.07
21504;BME280;10913;51.992;9.228;2023-01-09T11:46:56;98536.72;;;10.41;84.50
21504;BME280;10913;51.992;9.228;2023-01-09T11:49:22;98537.28;;;10.24;84.24
21504;BME280;10913;51.992;9.228;2023-01-09T11:52:17;98535.09;;;10.11;84.90
21504;BME280;10913;51.992;9.228;2023-01-09T11:54:59;98538.63;;;10.10;85.27
21504;BME280;10913;51.992;9.228;2023-01-09T11:57:30;98525.63;;;10.03;85.65
21504;BME280;10913;51.992;9.228;2023-01-09T11:59:58;98530.22;;;9.98;85.08
21504;BME280;10913;51.992;9.228;2023-01-09T12:05:00;98525.03;;;9.95;85.76
21504;BME280;10913;51.992;9.228;2023-01-09T12:08:19;98533.00;;;9.94;86.15
21504;BME280;10913;51.992;9.228;2023-01-09T12:25:52;98538.78;;;9.51;89.20
21504;BME280;10913;51.992;9.228;2023-01-09T12:36:23;98554.50;;;9.54;90.28
21504;BME280;10913;51.992;9.228;2023-01-09T12:38:53;98550.25;;;9.48;89.20
21504;BME280;10913;51.992;9.228;2023-01-09T12:47:12;98562.06;;;9.37;88.76
21504;BME280;10913;51.992;9.228;2023-01-09T12:50:00;98547.16;;;9.36;89.01
21504;BME280;10913;51.992;9.228;2023-01-09T12:52:37;98548.19;;;9.30;88.47
21504;BME280;10913;51.992;9.228;2023-01-09T12:55:23;98542.78;;;9.35;89.69
21504;BME280;10913;51.992;9.228;2023-01-09T12:57:54;98546.25;;;9.37;88.86
21504;BME280;10913;51.992;9.228;2023-01-09T13:00:33;98546.13;;;9.40;89.32
21504;BME280;10913;51.992;9.228;2023-01-09T13:05:36;98543.47;;;9.40;89.01
21504;BME280;10913;51.992;9.228;2023-01-09T13:13:42;98550.59;;;9.38;88.85
21504;BME280;10913;51.992;9.228;2023-01-09T13:16:19;98555.13;;;9.32;88.50
21504;BME280;10913;51.992;9.228;2023-01-09T13:18:57;98560.59;;;9.26;88.91
21504;BME280;10913;51.992;9.228;2023-01-09T13:21:25;98564.13;;;9.25;89.13
21504;BME280;10913;51.992;9.228;2023-01-09T13:23:52;98560.66;;;9.23;89.06
21504;BME280;10913;51.992;9.228;2023-01-09T13:26:26;98560.72;;;9.22;88.94
21504;BME280;10913;51.992;9.228;2023-01-09T13:28:56;98556.38;;;9.19;89.01
21504;BME280;10913;51.992;9.228;2023-01-09T13:34:01;98546.78;;;9.18;89.43
21504;BME280;10913;51.992;9.228;2023-01-09T13:36:34;98553.75;;;9.19;88.80
21504;BME280;10913;51.992;9.228;2023-01-09T13:39:01;98545.97;;;9.16;88.35
21504;BME280;10913;51.992;9.228;2023-01-09T13:41:28;98551.25;;;9.16;88.42
21504;BME280;10913;51.992;9.228;2023-01-09T13:44:26;98566.03;;;9.20;88.77
21504;BME280;10913;51.992;9.228;2023-01-09T13:46:57;98558.94;;;9.22;88.83
21504;BME280;10913;51.992;9.228;2023-01-09T13:51:57;98560.59;;;9.26;87.37
21504;BME280;10913;51.992;9.228;2023-01-09T14:07:42;98608.38;;;9.14;94.87
21504;BME280;10913;51.992;9.228;2023-01-09T14:10:24;98615.09;;;8.93;94.67
21504;BME280;10913;51.992;9.228;2023-01-09T14:12:52;98636.31;;;8.87;95.55
21504;BME280;10913;51.992;9.228;2023-01-09T14:15:36;98641.88;;;8.77;96.03
21504;BME280;10913;51.992;9.228;2023-01-09T14:18:14;98655.19;;;8.71;96.86
21504;BME280;10913;51.992;9.228;2023-01-09T14:20:43;98651.81;;;8.66;97.55
21504;BME280;10913;51.992;9.228;2023-01-09T14:23:26;98635.25;;;8.60;97.64
21504;BME280;10913;51.992;9.228;2023-01-09T14:25:54;98656.41;;;8.57;97.86
21504;BME280;10913;51.992;9.228;2023-01-09T14:28:21;98658.31;;;8.51;98.13
21504;BME280;10913;51.992;9.228;2023-01-09T14:38:45;98681.56;;;8.34;98.65
21504;BME280;10913;51.992;9.228;2023-01-09T14:41:32;98678.09;;;8.30;98.92
21504;BME280;10913;51.992;9.228;2023-01-09T14:44:52;98686.84;;;8.30;99.01
21504;BME280;10913;51.992;9.228;2023-01-09T14:47:27;98686.78;;;8.35;98.83
21504;BME280;10913;51.992;9.228;2023-01-09T14:50:14;98692.88;;;8.37;98.57
21504;BME280;10913;51.992;9.228;2023-01-09T14:52:50;98693.84;;;8.33;98.89
21504;BME280;10913;51.992;9.228;2023-01-09T14:55:28;98694.78;;;8.29;98.65
21504;BME280;10913;51.992;9.228;2023-01-09T14:58:17;98694.91;;;8.23;98.65
21504;BME280;10913;51.992;9.228;2023-01-09T15:00:53;98698.59;;;8.16;99.32
21504;BME280;10913;51.992;9.228;2023-01-09T15:03:21;98715.31;;;8.13;99.67
21504;BME280;10913;51.992;9.228;2023-01-09T15:05:48;98714.50;;;8.10;100.00
21504;BME280;10913;51.992;9.228;2023-01-09T15:08:18;98719.78;;;8.08;100.00
21504;BME280;10913;51.992;9.228;2023-01-09T15:10:46;98712.91;;;8.03;100.00
21504;BME280;10913;51.992;9.228;2023-01-09T15:13:17;98731.44;;;7.98;100.00
21504;BME280;10913;51.992;9.228;2023-01-09T15:15:48;98735.06;;;7.92;100.00
21504;BME280;10913;51.992;9.228;2023-01-09T15:18:21;98743.91;;;7.88;100.00
21504;BME280;10913;51.992;9.228;2023-01-09T15:21:00;98755.38;;;7.84;100.00
21504;BME280;10913;51.992;9.228;2023-01-09T15:23:27;98750.16;;;7.81;100.00
21504;BME280;10913;51.992;9.228;2023-01-09T15:25:55;98755.41;;;7.81;100.00
21504;BME280;10913;51.992;9.228;2023-01-09T15:28:25;98753.69;;;7.80;100.00